createdAt,value
2023-04-19T00:01:29.614Z,5.82
2023-04-19T00:04:00.298Z,5.85
2023-04-19T00:06:31.665Z,8.57
2023-04-19T00:09:02.211Z,8.32
2023-04-19T00:11:32.209Z,9.43
2023-04-19T00:14:02.726Z,5.50
2023-04-19T00:16:32.778Z,10.15
2023-04-19T00:19:03.422Z,5.75
2023-04-19T00:21:33.463Z,8.10
2023-04-19T00:24:04.680Z,4.72
2023-04-19T00:26:35.090Z,8.18
2023-04-19T00:29:05.230Z,7.90
2023-04-19T00:31:36.122Z,5.82
2023-04-19T00:34:07.639Z,11.35
2023-04-19T00:36:38.759Z,11.65
2023-04-19T00:39:09.519Z,6.50
2023-04-19T00:41:41.202Z,7.32
2023-04-19T00:44:11.275Z,6.18
2023-04-19T00:46:42.384Z,8.25
2023-04-19T00:49:12.812Z,8.40
2023-04-19T00:51:43.704Z,11.50
2023-04-19T00:54:18.350Z,9.95
2023-04-19T00:56:48.761Z,9.40
2023-04-19T00:59:20.037Z,10.40
2023-04-19T01:01:50.109Z,9.68
2023-04-19T01:04:21.034Z,8.95
2023-04-19T01:06:52.322Z,8.32
2023-04-19T01:09:22.795Z,8.57
2023-04-19T01:11:53.054Z,6.80
2023-04-19T01:14:23.740Z,10.13
2023-04-19T01:16:55.303Z,11.27
2023-04-19T01:19:26.852Z,9.32
2023-04-19T01:21:57.576Z,12.18
2023-04-19T01:24:28.596Z,10.35
2023-04-19T01:26:58.644Z,10.98
2023-04-19T01:29:30.621Z,14.70
2023-04-19T01:32:01.146Z,11.85
2023-04-19T01:34:31.231Z,13.43
2023-04-19T01:37:01.709Z,13.38
2023-04-19T01:39:32.392Z,16.55
2023-04-19T01:42:04.855Z,14.82
2023-04-19T01:44:34.976Z,14.27
2023-04-19T01:47:06.739Z,17.95
2023-04-19T01:49:36.913Z,16.23
2023-04-19T01:52:07.474Z,13.75
2023-04-19T01:54:37.499Z,12.48
2023-04-19T01:57:08.000Z,13.55
2023-04-19T01:59:38.336Z,15.10
2023-04-19T02:02:10.391Z,14.75
2023-04-19T02:04:41.358Z,13.15
2023-04-19T02:07:11.787Z,12.35
2023-04-19T02:09:41.694Z,17.02
2023-04-19T02:12:12.145Z,18.80
2023-04-19T02:14:42.258Z,16.65
2023-04-19T02:17:13.454Z,17.58
2023-04-19T02:19:43.439Z,17.92
2023-04-19T02:22:13.867Z,19.02
2023-04-19T02:24:43.681Z,15.00
2023-04-19T02:27:14.118Z,9.43
2023-04-19T02:29:44.215Z,11.73
2023-04-19T02:32:15.056Z,9.68
2023-04-19T02:34:45.114Z,9.13
2023-04-19T02:37:15.577Z,8.00
2023-04-19T02:39:47.041Z,10.93
2023-04-19T02:42:17.503Z,10.25
2023-04-19T02:44:47.505Z,14.90
2023-04-19T02:47:17.904Z,10.27
2023-04-19T02:49:47.943Z,14.57
2023-04-19T02:52:18.535Z,12.95
2023-04-19T02:54:48.633Z,16.02
2023-04-19T02:57:19.151Z,14.23
2023-04-19T02:59:49.228Z,13.75
2023-04-19T03:02:19.859Z,14.60
2023-04-19T03:04:50.033Z,15.23
2023-04-19T03:07:20.766Z,14.27
2023-04-19T03:09:50.790Z,13.07
2023-04-19T03:12:22.642Z,10.80
2023-04-19T03:14:52.745Z,6.85
2023-04-19T03:17:23.903Z,9.50
2023-04-19T03:19:55.143Z,9.68
2023-04-19T03:22:25.897Z,8.45
2023-04-19T03:24:55.916Z,8.25
2023-04-19T03:27:26.344Z,10.52
2023-04-19T03:30:01.691Z,7.25
2023-04-19T03:32:33.588Z,8.95
2023-04-19T03:35:04.767Z,6.50
2023-04-19T03:37:34.765Z,5.90
2023-04-19T03:40:06.859Z,7.15
2023-04-19T03:42:37.324Z,9.23
2023-04-19T03:45:17.442Z,6.32
2023-04-19T03:47:50.112Z,6.22
2023-04-19T03:50:20.670Z,7.55
2023-04-19T03:52:53.825Z,3.40
2023-04-19T03:55:24.989Z,7.30
2023-04-19T03:57:55.114Z,5.78
2023-04-19T04:00:38.288Z,6.72
2023-04-19T04:03:09.292Z,5.78
2023-04-19T04:05:40.148Z,6.78
2023-04-19T04:08:10.686Z,7.47
2023-04-19T04:10:40.693Z,4.82
2023-04-19T04:13:11.717Z,5.93
2023-04-19T04:15:49.152Z,6.68
2023-04-19T04:18:20.570Z,6.72
2023-04-19T04:20:52.554Z,8.63
2023-04-19T04:23:23.884Z,5.30
2023-04-19T04:26:06.352Z,9.10
2023-04-19T04:28:48.425Z,8.23
2023-04-19T04:31:22.253Z,5.63
2023-04-19T04:33:54.896Z,5.50
2023-04-19T04:36:27.122Z,4.55
2023-04-19T04:41:29.178Z,5.78
2023-04-19T04:46:35.438Z,9.02
2023-04-19T04:49:06.017Z,7.82
2023-04-19T04:51:37.380Z,6.38
2023-04-19T04:54:08.103Z,9.00
2023-04-19T04:56:38.444Z,6.47
2023-04-19T04:59:09.448Z,5.88
2023-04-19T05:01:42.356Z,6.57
2023-04-19T05:04:13.335Z,4.63
2023-04-19T05:06:43.490Z,6.65
2023-04-19T05:09:14.489Z,5.95
2023-04-19T05:11:44.621Z,5.82
2023-04-19T05:14:15.345Z,6.85
2023-04-19T05:16:45.685Z,6.40
2023-04-19T05:19:16.177Z,6.47
2023-04-19T05:21:52.001Z,6.15
2023-04-19T05:24:22.472Z,7.13
2023-04-19T05:26:53.705Z,6.82
2023-04-19T05:29:24.572Z,4.28
2023-04-19T05:31:57.438Z,5.80
2023-04-19T05:34:34.403Z,5.43
2023-04-19T05:37:06.996Z,9.43
2023-04-19T05:42:07.966Z,6.28
2023-04-19T05:44:38.641Z,6.78
2023-04-19T05:47:08.763Z,5.72
2023-04-19T05:50:08.922Z,4.80
2023-04-19T05:52:43.356Z,6.53
2023-04-19T05:55:13.793Z,10.30
2023-04-19T05:57:47.079Z,8.55
2023-04-19T06:00:18.291Z,4.47
2023-04-19T06:02:57.708Z,8.00
2023-04-19T06:05:28.361Z,5.80
2023-04-19T06:08:02.461Z,4.85
2023-04-19T06:10:49.034Z,3.85
2023-04-19T06:13:24.855Z,3.92
2023-04-19T06:15:55.398Z,7.22
2023-04-19T06:18:25.845Z,6.50
2023-04-19T06:20:56.399Z,7.53
2023-04-19T06:23:28.128Z,6.45
2023-04-19T06:25:58.535Z,4.13
2023-04-19T06:28:28.352Z,8.30
2023-04-19T06:30:58.748Z,6.47
2023-04-19T06:33:28.840Z,6.43
2023-04-19T06:35:59.257Z,7.05
2023-04-19T06:38:29.258Z,4.75
2023-04-19T06:40:59.700Z,4.93
2023-04-19T06:43:29.706Z,4.35
2023-04-19T06:46:01.407Z,4.82
2023-04-19T06:48:32.008Z,4.80
2023-04-19T06:51:02.432Z,6.63
2023-04-19T06:53:32.535Z,4.57
2023-04-19T06:56:03.993Z,2.47
2023-04-19T06:58:35.607Z,3.47
2023-04-19T07:01:06.491Z,3.97
2023-04-19T07:03:37.440Z,6.20
2023-04-19T07:06:07.627Z,2.85
2023-04-19T07:08:49.408Z,4.68
2023-04-19T07:11:21.950Z,5.32
2023-04-19T07:13:52.960Z,3.45
2023-04-19T07:16:23.524Z,3.78
2023-04-19T07:18:53.653Z,4.45
2023-04-19T07:21:25.965Z,7.10
2023-04-19T07:23:57.259Z,5.43
2023-04-19T07:26:27.317Z,7.32
2023-04-19T07:28:58.163Z,5.93
2023-04-19T07:31:29.089Z,4.55
2023-04-19T07:33:59.732Z,7.47
2023-04-19T07:36:29.824Z,10.10
2023-04-19T07:39:00.262Z,6.68
2023-04-19T07:41:30.221Z,9.95
2023-04-19T07:44:00.833Z,4.63
2023-04-19T07:46:30.866Z,4.95
2023-04-19T07:49:01.290Z,6.20
2023-04-19T07:51:31.292Z,4.97
2023-04-19T07:54:02.206Z,4.25
2023-04-19T07:56:32.457Z,6.07
2023-04-19T07:59:08.464Z,5.57
2023-04-19T08:01:39.594Z,6.13
2023-04-19T08:04:10.418Z,4.30
2023-04-19T08:06:41.713Z,5.70
2023-04-19T08:09:12.470Z,4.95
2023-04-19T08:11:43.357Z,4.15
2023-04-19T08:14:28.192Z,4.57
2023-04-19T08:19:39.049Z,6.18
2023-04-19T08:22:09.012Z,2.83
2023-04-19T08:24:39.572Z,4.47
2023-04-19T08:27:10.596Z,6.60
2023-04-19T08:29:41.693Z,7.18
2023-04-19T08:32:12.755Z,4.57
2023-04-19T08:34:43.215Z,5.68
2023-04-19T08:37:13.260Z,5.28
2023-04-19T08:39:43.686Z,3.13
2023-04-19T08:42:28.668Z,3.10
2023-04-19T08:50:28.373Z,4.72
2023-04-19T08:55:36.129Z,3.08
2023-04-19T08:58:12.282Z,4.90
2023-04-19T09:00:49.677Z,5.75
2023-04-19T09:03:19.969Z,5.38
2023-04-19T09:05:50.891Z,6.43
2023-04-19T09:08:26.289Z,4.75
2023-04-19T09:11:01.812Z,4.47
2023-04-19T09:13:32.160Z,6.93
2023-04-19T09:16:02.691Z,3.88
2023-04-19T09:18:35.939Z,3.80
2023-04-19T09:21:10.968Z,4.22
2023-04-19T09:23:49.588Z,6.97
2023-04-19T09:26:23.303Z,4.85
2023-04-19T09:29:06.049Z,7.78
2023-04-19T09:31:50.819Z,7.15
2023-04-19T09:34:22.785Z,4.38
2023-04-19T09:37:04.421Z,3.95
2023-04-19T09:39:42.140Z,10.77
2023-04-19T09:42:12.831Z,4.10
2023-04-19T09:45:20.770Z,5.55
2023-04-19T09:47:36.165Z,3.45
2023-04-19T09:52:43.913Z,5.50
2023-04-19T09:55:24.578Z,5.70
2023-04-19T09:57:57.724Z,8.02
2023-04-19T10:00:31.560Z,3.70
2023-04-19T10:03:08.289Z,7.32
2023-04-19T10:05:42.819Z,9.25
2023-04-19T10:08:15.805Z,4.20
2023-04-19T10:10:48.421Z,2.53
2023-04-19T10:13:26.649Z,4.28
2023-04-19T10:16:01.697Z,5.65
2023-04-19T10:18:35.596Z,1.38
2023-04-19T10:21:08.944Z,4.97
2023-04-19T10:23:39.754Z,6.95
2023-04-19T10:26:10.228Z,12.20
2023-04-19T10:28:43.901Z,15.88
2023-04-19T10:31:14.775Z,8.25
2023-04-19T10:33:45.315Z,5.60
2023-04-19T10:36:18.668Z,3.85
2023-04-19T10:38:50.862Z,5.05
2023-04-19T10:41:22.058Z,2.00
2023-04-19T10:43:58.859Z,4.35
2023-04-19T10:46:30.662Z,3.92
2023-04-19T10:49:06.370Z,8.05
2023-04-19T10:51:43.480Z,4.07
2023-04-19T10:54:37.669Z,2.25
2023-04-19T10:57:09.624Z,3.00
2023-04-19T10:59:42.638Z,3.03
2023-04-19T11:02:25.976Z,4.78
2023-04-19T11:04:56.815Z,4.28
2023-04-19T11:07:26.880Z,4.45
2023-04-19T11:09:57.448Z,2.05
2023-04-19T11:12:27.425Z,2.35
2023-04-19T11:15:01.537Z,4.25
2023-04-19T11:17:33.456Z,3.72
2023-04-19T11:20:10.462Z,3.25
2023-04-19T11:22:46.827Z,3.97
2023-04-19T11:25:23.085Z,2.97
2023-04-19T11:27:54.540Z,6.05
2023-04-19T11:30:31.002Z,3.45
2023-04-19T11:33:01.153Z,5.43
2023-04-19T11:35:31.744Z,5.85
2023-04-19T11:38:02.646Z,3.55
2023-04-19T11:40:33.630Z,3.47
2023-04-19T11:43:06.215Z,4.78
2023-04-19T11:45:40.088Z,6.03
2023-04-19T11:48:19.081Z,5.93
2023-04-19T11:50:51.190Z,4.70
2023-04-19T11:53:25.881Z,6.03
2023-04-19T11:56:07.789Z,3.65
2023-04-19T11:58:52.425Z,5.90
2023-04-19T12:01:25.720Z,3.10
2023-04-19T12:04:00.275Z,7.80
2023-04-19T12:06:35.598Z,9.68
2023-04-19T12:09:12.836Z,34.08
2023-04-19T12:11:51.855Z,54.05
2023-04-19T12:14:24.144Z,53.67
2023-04-19T12:17:14.904Z,55.53
2023-04-19T12:19:47.395Z,12.52
2023-04-19T12:22:21.579Z,21.33
2023-04-19T12:24:54.769Z,6.53
2023-04-19T12:27:26.880Z,4.90
2023-04-19T12:29:56.909Z,10.98
2023-04-19T12:32:27.502Z,11.73
2023-04-19T12:34:57.647Z,12.75
2023-04-19T12:37:27.566Z,30.92
2023-04-19T12:39:57.977Z,12.32
2023-04-19T12:42:28.023Z,20.23
2023-04-19T12:44:58.472Z,12.00
2023-04-19T12:47:28.750Z,5.57
2023-04-19T12:50:02.921Z,8.00
2023-04-19T12:52:32.971Z,5.30
2023-04-19T12:55:03.838Z,5.72
2023-04-19T12:57:34.049Z,9.88
2023-04-19T13:00:06.238Z,9.35
2023-04-19T13:02:37.625Z,5.88
2023-04-19T13:05:08.572Z,10.65
2023-04-19T13:07:38.619Z,11.75
2023-04-19T13:10:09.057Z,5.68
2023-04-19T13:12:39.612Z,7.90
2023-04-19T13:15:10.448Z,6.65
2023-04-19T13:17:41.001Z,10.32
2023-04-19T13:20:11.641Z,10.25
2023-04-19T13:22:42.097Z,8.70
2023-04-19T13:25:12.390Z,9.05
2023-04-19T13:27:42.943Z,10.90
2023-04-19T13:30:14.117Z,12.43
2023-04-19T13:32:45.621Z,11.40
2023-04-19T13:35:15.673Z,6.75
2023-04-19T13:37:48.022Z,9.65
2023-04-19T13:40:19.672Z,12.43
2023-04-19T13:42:49.916Z,12.02
2023-04-19T13:45:20.362Z,7.63
2023-04-19T13:47:50.426Z,8.98
2023-04-19T13:50:20.911Z,10.30
2023-04-19T13:52:51.046Z,9.80
2023-04-19T13:55:21.527Z,3.67
2023-04-19T13:57:51.593Z,10.85
2023-04-19T14:00:22.647Z,8.32
2023-04-19T14:02:53.300Z,5.88
2023-04-19T14:05:23.825Z,6.15
2023-04-19T14:07:53.854Z,9.73
2023-04-19T14:10:24.382Z,8.65
2023-04-19T14:12:54.583Z,11.18
2023-04-19T14:15:26.646Z,6.72
2023-04-19T14:17:56.744Z,6.55
2023-04-19T14:20:27.296Z,7.97
2023-04-19T14:23:00.003Z,9.02
2023-04-19T14:25:30.348Z,11.13
2023-04-19T14:28:01.190Z,10.05
2023-04-19T14:30:31.790Z,7.15
2023-04-19T14:33:01.900Z,11.10
2023-04-19T14:35:32.598Z,9.65
2023-04-19T14:38:03.142Z,9.77
2023-04-19T14:40:33.120Z,8.98
2023-04-19T14:43:03.588Z,7.43
2023-04-19T14:45:33.581Z,10.77
2023-04-19T14:48:04.096Z,8.13
2023-04-19T14:50:34.102Z,6.18
2023-04-19T14:53:04.525Z,10.40
2023-04-19T14:55:34.585Z,9.30
2023-04-19T14:58:05.563Z,8.43
2023-04-19T15:00:35.841Z,8.65
2023-04-19T15:03:06.949Z,7.80
2023-04-19T15:05:37.842Z,8.20
2023-04-19T15:08:17.334Z,7.72
2023-04-19T15:10:57.059Z,6.18
2023-04-19T15:13:27.994Z,6.38
2023-04-19T15:15:59.128Z,5.47
2023-04-19T15:18:31.480Z,10.27
2023-04-19T15:21:01.590Z,9.73
2023-04-19T15:23:32.089Z,10.15
2023-04-19T15:26:01.879Z,6.90
2023-04-19T15:28:39.703Z,8.35
2023-04-19T15:31:11.355Z,7.78
2023-04-19T15:33:42.340Z,6.63
2023-04-19T15:36:12.354Z,7.32
2023-04-19T15:38:43.942Z,7.43
2023-04-19T15:41:14.175Z,11.07
2023-04-19T15:43:44.000Z,10.00
2023-04-19T15:46:15.189Z,7.15
2023-04-19T15:48:46.491Z,8.85
2023-04-19T15:51:17.190Z,5.80
2023-04-19T15:53:47.242Z,5.03
2023-04-19T15:56:17.687Z,10.98
2023-04-19T15:58:47.730Z,4.53
2023-04-19T16:01:19.248Z,10.40
2023-04-19T16:03:50.618Z,8.90
2023-04-19T16:06:20.761Z,8.65
2023-04-19T16:08:51.982Z,9.25
2023-04-19T16:11:22.052Z,4.38
2023-04-19T16:13:52.595Z,6.57
2023-04-19T16:16:22.654Z,4.63
2023-04-19T16:18:53.173Z,5.72
2023-04-19T16:21:22.935Z,7.25
2023-04-19T16:23:53.436Z,8.50
2023-04-19T16:26:24.174Z,10.80
2023-04-19T16:28:54.831Z,6.75
2023-04-19T16:31:25.468Z,7.13
2023-04-19T16:33:56.886Z,6.55
2023-04-19T16:36:26.879Z,13.13
2023-04-19T16:38:57.350Z,5.55
2023-04-19T16:41:27.376Z,5.10
2023-04-19T16:43:57.815Z,6.68
2023-04-19T16:46:27.927Z,7.97
2023-04-19T16:49:00.049Z,8.07
2023-04-19T16:51:30.231Z,7.43
2023-04-19T16:54:00.705Z,6.82
2023-04-19T16:56:30.689Z,5.30
2023-04-19T16:59:01.122Z,8.18
2023-04-19T17:01:31.312Z,10.00
2023-04-19T17:04:02.146Z,7.30
2023-04-19T17:06:33.289Z,8.30
2023-04-19T17:09:06.641Z,7.95
2023-04-19T17:11:36.647Z,8.48
2023-04-19T17:14:07.177Z,8.25
2023-04-19T17:16:37.175Z,8.65
2023-04-19T17:19:07.677Z,10.38
2023-04-19T17:21:37.841Z,5.50
2023-04-19T17:24:08.399Z,9.93
2023-04-19T17:26:38.421Z,10.73
2023-04-19T17:29:08.399Z,10.43
2023-04-19T17:31:38.866Z,10.07
2023-04-19T17:34:09.161Z,4.97
2023-04-19T17:36:39.552Z,11.93
2023-04-19T17:39:09.795Z,7.20
2023-04-19T17:41:40.591Z,9.93
2023-04-19T17:44:10.637Z,7.53
2023-04-19T17:46:41.611Z,7.18
2023-04-19T17:49:11.709Z,9.73
2023-04-19T17:51:42.141Z,6.07
2023-04-19T17:54:12.161Z,9.38
2023-04-19T17:56:42.676Z,7.82
2023-04-19T17:59:12.670Z,7.05
2023-04-19T18:01:43.233Z,7.93
2023-04-19T18:04:18.461Z,10.98
2023-04-19T18:06:48.973Z,10.48
2023-04-19T18:09:20.144Z,8.57
2023-04-19T18:11:50.580Z,5.55
2023-04-19T18:14:20.441Z,5.45
2023-04-19T18:16:51.068Z,7.32
2023-04-19T18:19:21.682Z,9.35
2023-04-19T18:21:52.093Z,14.52
2023-04-19T18:24:22.188Z,8.98
2023-04-19T18:26:52.679Z,7.93
2023-04-19T18:29:24.434Z,8.35
2023-04-19T18:31:54.998Z,8.57
2023-04-19T18:34:26.835Z,11.77
2023-04-19T18:37:02.352Z,5.13
2023-04-19T18:39:32.602Z,9.52
2023-04-19T18:42:03.030Z,4.43
2023-04-19T18:44:52.197Z,7.90
2023-04-19T18:47:24.057Z,7.28
2023-04-19T18:50:04.617Z,9.98
2023-04-19T18:52:39.619Z,5.47
2023-04-19T18:55:10.077Z,10.02
2023-04-19T18:57:40.570Z,7.45
2023-04-19T19:00:12.230Z,9.68
2023-04-19T19:02:43.981Z,7.70
2023-04-19T19:05:16.961Z,10.98
2023-04-19T19:07:47.477Z,6.93
2023-04-19T19:10:21.849Z,8.82
2023-04-19T19:12:52.895Z,9.15
2023-04-19T19:15:23.401Z,4.50
2023-04-19T19:17:53.738Z,17.67
2023-04-19T19:20:24.417Z,4.28
2023-04-19T19:22:54.751Z,7.50
2023-04-19T19:25:25.711Z,7.70
2023-04-19T19:30:32.502Z,9.10
2023-04-19T19:33:05.820Z,8.90
2023-04-19T19:38:08.610Z,8.15
2023-04-19T19:41:05.429Z,8.18
2023-04-19T19:43:29.550Z,9.10
2023-04-19T19:46:00.040Z,7.22
2023-04-19T19:48:30.639Z,6.13
2023-04-19T19:51:31.371Z,5.05
2023-04-19T19:53:51.720Z,7.03
2023-04-19T19:56:24.409Z,8.55
2023-04-19T19:58:55.135Z,4.03
2023-04-19T20:01:26.961Z,7.75
2023-04-19T20:03:57.323Z,5.95
2023-04-19T20:07:15.576Z,8.23
2023-04-19T20:09:21.135Z,5.03
2023-04-19T20:11:51.860Z,7.32
2023-04-19T20:14:24.889Z,7.07
2023-04-19T20:16:55.480Z,3.67
2023-04-19T20:19:25.710Z,6.28
2023-04-19T20:21:55.959Z,6.55
2023-04-19T20:24:26.852Z,7.60
2023-04-19T20:26:58.610Z,7.13
2023-04-19T20:29:29.023Z,6.68
2023-04-19T20:31:59.300Z,7.65
2023-04-19T20:34:29.737Z,8.85
2023-04-19T20:36:59.927Z,6.72
2023-04-19T20:39:30.410Z,7.30
2023-04-19T20:42:00.275Z,7.28
2023-04-19T20:44:30.706Z,9.25
2023-04-19T20:47:00.735Z,5.85
2023-04-19T20:49:31.207Z,8.48
2023-04-19T20:52:01.242Z,5.82
2023-04-19T20:54:31.719Z,6.32
2023-04-19T20:57:05.706Z,9.27
2023-04-19T20:59:36.089Z,8.15
2023-04-19T21:02:06.043Z,8.50
2023-04-19T21:04:36.024Z,15.88
2023-04-19T21:07:06.618Z,17.98
2023-04-19T21:09:36.911Z,15.25
2023-04-19T21:12:07.431Z,8.75
2023-04-19T21:14:37.456Z,7.30
2023-04-19T21:17:07.933Z,6.13
2023-04-19T21:19:39.149Z,10.75
2023-04-19T21:22:09.701Z,9.30
2023-04-19T21:24:39.698Z,8.25
2023-04-19T21:27:10.130Z,9.88
2023-04-19T21:29:39.953Z,5.50
2023-04-19T21:32:10.391Z,5.85
2023-04-19T21:34:40.404Z,7.13
2023-04-19T21:37:10.873Z,10.05
2023-04-19T21:39:40.876Z,9.35
2023-04-19T21:42:11.302Z,11.63
2023-04-19T21:44:41.522Z,11.63
2023-04-19T21:47:15.272Z,8.25
2023-04-19T21:49:45.363Z,8.23
2023-04-19T21:52:15.823Z,10.82
2023-04-19T21:54:45.934Z,11.45
2023-04-19T21:57:18.695Z,8.13
2023-04-19T21:59:48.495Z,6.10
2023-04-19T22:02:19.301Z,7.95
2023-04-19T22:04:50.075Z,10.68
2023-04-19T22:07:20.525Z,9.07
2023-04-19T22:09:50.529Z,12.23
2023-04-19T22:12:21.029Z,7.93
2023-04-19T22:14:51.122Z,8.60
2023-04-19T22:17:22.085Z,9.43
2023-04-19T22:19:52.746Z,10.18
2023-04-19T22:22:23.242Z,7.30
2023-04-19T22:24:58.044Z,11.43
2023-04-19T22:27:28.889Z,11.10
2023-04-19T22:29:58.806Z,13.93
2023-04-19T22:32:28.794Z,10.05
2023-04-19T22:34:58.844Z,11.35
2023-04-19T22:37:29.267Z,11.00
2023-04-19T22:39:59.129Z,7.95
2023-04-19T22:42:29.545Z,6.93
2023-04-19T22:44:59.608Z,10.73
2023-04-19T22:47:30.186Z,8.75
2023-04-19T22:50:00.593Z,8.68
2023-04-19T22:52:30.468Z,9.10
2023-04-19T22:55:00.799Z,9.02
2023-04-19T22:57:30.843Z,9.95
2023-04-19T23:00:00.676Z,10.82
2023-04-19T23:02:31.182Z,11.65
2023-04-19T23:05:01.773Z,11.77
2023-04-19T23:07:32.493Z,9.30
2023-04-19T23:10:04.173Z,6.07
2023-04-19T23:12:34.810Z,10.23
2023-04-19T23:15:05.011Z,10.40
2023-04-19T23:17:35.829Z,9.73
2023-04-19T23:20:07.273Z,8.73
2023-04-19T23:22:37.843Z,8.35
2023-04-19T23:25:08.701Z,11.35
2023-04-19T23:27:39.181Z,9.80
2023-04-19T23:30:10.066Z,7.20
2023-04-19T23:32:40.518Z,9.75
2023-04-19T23:35:11.193Z,8.48
2023-04-19T23:37:42.390Z,6.82
2023-04-19T23:40:12.564Z,8.27
2023-04-19T23:42:43.004Z,6.20
2023-04-19T23:45:16.043Z,6.95
2023-04-19T23:47:46.597Z,10.18
2023-04-19T23:50:16.830Z,12.95
2023-04-19T23:52:47.292Z,11.30
2023-04-19T23:55:17.602Z,8.75
2023-04-19T23:57:48.029Z,6.25
